Weather History for Bullhead City, AZ

Change the Weather History Date:

Saturday, November 3, 2012

  Actual Average Record
Temperature  
Mean Temperature 68 °F -  
Max Temperature 82 °F 74 °F 89 °F (2010)
Min Temperature 53 °F 56 °F 48 °F (2004)
Cooling Degree Days 2    
Growing Degree Days 18 (Base 50)    
Moisture  
Dew Point 28 °F    
Average Humidity 25    
Maximum Humidity 44    
Minimum Humidity 10    
Precipitation  
Precipitation 0.00 in - - ()
Sea Level Pressure  
Sea Level Pressure 30.01 in    
Wind  
Wind Speed 5 mph (North)    
Max Wind Speed 21 mph    
Max Gust Speed 25 mph    
Visibility 10 miles    
Events      
Averages and records for this station are not official NWS values.
T = Trace of Precipitation, MM = Missing Value Source: NWS Daily Summary

Daily Weather History Graph

Daily Weather History Graph

Search for Another Location

Airport:

Trip Planner

Search our weather history database for the weather conditions in past years. The results will help you decide how hot, cold, wet, or windy it might be!

Date:

Astronomy

Nov. 03, 2012 Rise Set
Actual Time 7:01 AM MST 5:41 PM MST
Civil Twilight 6:35 AM MST 6:07 PM MST
Nautical Twilight 6:05 AM MST 6:37 PM MST
Astronomical Twilight 5:35 AM MST 7:07 PM MST
Moon 9:29 PM MST (11/3) 11:05 AM MST (11/3)
Length of Visible Light 11h 32m
Length of Day
10h 39m
Waning Gibbous, 79% of the Moon is Illuminated
Nov 3
Waning Gibbous
Nov 6
Last Quarter
Nov 13
New
Nov 20
First Quarter
Nov 28
Full

Hourly Weather History & Observations

Time (MST) Temp. Dew Point Humidity Pressure Visibility Wind Dir Wind Speed Gust Speed Precip Events Conditions
12:15 AM 64.4 °F 24.8 °F 22% 29.96 in 10.0 mi Calm Calm - N/A   Clear
12:35 AM 60.8 °F 26.6 °F 27% 29.96 in 10.0 mi Calm Calm - N/A   Clear
12:55 AM 60.8 °F 26.6 °F 27% 29.97 in 10.0 mi Calm Calm - N/A   Clear
1:15 AM 59.0 °F 26.6 °F 29% 29.97 in 10.0 mi Calm Calm - N/A   Clear
1:35 AM 59.0 °F 26.6 °F 29% 29.97 in 10.0 mi East 3.5 mph - N/A   Clear
1:55 AM 59.0 °F 26.6 °F 29% 29.97 in 10.0 mi ENE 3.5 mph - N/A   Clear
2:15 AM 59.0 °F 26.6 °F 29% 29.98 in 10.0 mi Calm Calm - N/A   Clear
2:35 AM 59.0 °F 28.4 °F 31% 29.98 in 10.0 mi Calm Calm - N/A   Clear
2:55 AM 57.2 °F 28.4 °F 33% 29.98 in 10.0 mi Calm Calm - N/A   Clear
3:15 AM 57.2 °F 28.4 °F 33% 29.98 in 10.0 mi NE 3.5 mph - N/A   Clear
3:35 AM 57.2 °F 28.4 °F 33% 29.98 in 10.0 mi Calm Calm - N/A   Clear
3:55 AM 57.2 °F 28.4 °F 33% 29.99 in 10.0 mi Calm Calm - N/A   Clear
4:15 AM 55.4 °F 28.4 °F 36% 29.99 in 10.0 mi Calm Calm - N/A   Clear
4:35 AM 55.4 °F 28.4 °F 36% 30.00 in 10.0 mi Calm Calm - N/A   Clear
4:55 AM 55.4 °F 28.4 °F 36% 30.00 in 10.0 mi SE 3.5 mph - N/A   Clear
5:15 AM 57.2 °F 32.0 °F 38% 30.01 in 10.0 mi Calm Calm - N/A   Clear
5:35 AM 55.4 °F 32.0 °F 41% 30.01 in 10.0 mi Calm Calm - N/A   Clear
5:55 AM 53.6 °F 32.0 °F 44% 30.02 in 10.0 mi Calm Calm - N/A   Clear
6:15 AM 55.4 °F 32.0 °F 41% 30.03 in 10.0 mi Calm Calm - N/A   Clear
6:35 AM 55.4 °F 32.0 °F 41% 30.03 in 10.0 mi Calm Calm - N/A   Clear
6:55 AM 53.6 °F 32.0 °F 44% 30.03 in 10.0 mi Calm Calm - N/A   Clear
7:15 AM 55.4 °F 32.0 °F 41% 30.04 in 10.0 mi Calm Calm - N/A   Clear
7:35 AM 53.6 °F 32.0 °F 44% 30.05 in 10.0 mi Calm Calm - N/A   Clear
7:55 AM 55.4 °F 32.0 °F 41% 30.05 in 10.0 mi Calm Calm - N/A   Clear
8:15 AM 55.4 °F 33.8 °F 44% 30.06 in 10.0 mi Calm Calm - N/A   Clear
8:35 AM 57.2 °F 33.8 °F 41% 30.07 in 10.0 mi Calm Calm - N/A   Clear
8:55 AM 60.8 °F 32.0 °F 34% 30.07 in 10.0 mi Calm Calm - N/A   Clear
9:15 AM 60.8 °F 32.0 °F 34% 30.07 in 10.0 mi Calm Calm - N/A   Clear
9:35 AM 62.6 °F 33.8 °F 34% 30.07 in 10.0 mi SW 3.5 mph - N/A   Clear
9:55 AM 64.4 °F 33.8 °F 32% 30.07 in 10.0 mi SW 3.5 mph - N/A   Clear
10:15 AM 66.2 °F 35.6 °F 32% 30.07 in 10.0 mi SSW 3.5 mph - N/A   Clear
10:35 AM 71.6 °F 32.0 °F 23% 30.07 in 10.0 mi North 15.0 mph - N/A   Clear
10:55 AM 73.4 °F 26.6 °F 18% 30.06 in 10.0 mi North 18.4 mph 23.0 mph N/A   Clear
11:15 AM 75.2 °F 26.6 °F 17% 30.07 in 10.0 mi North 17.3 mph - N/A   Clear
11:35 AM 75.2 °F 26.6 °F 17% 30.06 in 10.0 mi North 16.1 mph - N/A   Clear
11:55 AM 77.0 °F 28.4 °F 17% 30.05 in 10.0 mi North 18.4 mph 23.0 mph N/A   Clear
12:15 PM 77.0 °F 28.4 °F 17% 30.05 in 10.0 mi North 16.1 mph 21.9 mph N/A   Clear
12:35 PM 78.8 °F 26.6 °F 15% 30.04 in 10.0 mi North 18.4 mph 25.3 mph N/A   Clear
12:55 PM 80.6 °F 26.6 °F 14% 30.03 in 10.0 mi North 20.7 mph 24.2 mph N/A   Clear
1:15 PM 80.6 °F 26.6 °F 14% 30.02 in 10.0 mi North 20.7 mph 25.3 mph N/A   Clear
1:35 PM 80.6 °F 26.6 °F 14% 30.01 in 10.0 mi North 17.3 mph 21.9 mph N/A   Clear
1:55 PM 80.6 °F 24.8 °F 13% 30.00 in 10.0 mi North 20.7 mph - N/A   Clear
2:15 PM 82.4 °F 24.8 °F 12% 30.00 in 10.0 mi North 17.3 mph - N/A   Clear
2:35 PM 82.4 °F 24.8 °F 12% 30.00 in 10.0 mi North 18.4 mph - N/A   Clear
2:55 PM 82.4 °F 24.8 °F 12% 29.99 in 10.0 mi North 19.6 mph - N/A   Clear
3:15 PM 82.4 °F 23.0 °F 11% 29.99 in 10.0 mi North 17.3 mph 21.9 mph N/A   Clear
3:35 PM 82.4 °F 23.0 °F 11% 29.99 in 10.0 mi North 15.0 mph 18.4 mph N/A   Clear
3:55 PM 82.4 °F 23.0 °F 11% 29.98 in 10.0 mi North 18.4 mph - N/A   Clear
4:15 PM 82.4 °F 23.0 °F 11% 29.98 in 10.0 mi North 15.0 mph - N/A   Clear
4:35 PM 82.4 °F 21.2 °F 10% 29.99 in 10.0 mi North 12.7 mph - N/A   Clear
4:55 PM 82.4 °F 19.4 °F 10% 29.99 in 10.0 mi North 13.8 mph - N/A   Clear
5:15 PM 82.4 °F 19.4 °F 10% 29.99 in 10.0 mi North 10.4 mph - N/A   Clear
5:35 PM 80.6 °F 23.0 °F 12% 29.99 in 10.0 mi North 9.2 mph - N/A   Clear
5:55 PM 78.8 °F 23.0 °F 13% 29.99 in 10.0 mi North 8.1 mph - N/A   Clear
6:15 PM 77.0 °F 23.0 °F 13% 30.00 in 10.0 mi NNE 4.6 mph - N/A   Clear
6:35 PM 75.2 °F 24.8 °F 15% 30.00 in 10.0 mi ENE 6.9 mph - N/A   Clear
6:55 PM 75.2 °F 26.6 °F 17% 30.01 in 10.0 mi ENE 6.9 mph - N/A   Clear